FBD777 UNNT-UNNT
Flight info
| Callsign | FBD777 |
|---|---|
| Flight time | 0h 32m |
| Altitude | 3000 |
| Route | DCT |
| Aircraft | C172/L-VGD/A |
Departure
| Time | 2026-04-27 11:42 |
|---|---|
| Airport | Novosibirsk Tolmachevo Airport (UNNT) |
Arrival
| Time | 2026-04-27 12:14 |
|---|---|
| Airport | Novosibirsk Tolmachevo Airport (UNNT) |
| Time | Latitude | Longitude | Altitude | Speed | Heading |
|---|---|---|---|---|---|
| 2026-04-27 11:09 | 55.00844 | 82.65236 | 368 ft | 0 kts | 351° |
| 2026-04-27 11:15 | 55.00843 | 82.65236 | 368 ft | 0 kts | 351° |
| 2026-04-27 11:25 | 55.00842 | 82.65236 | 368 ft | 0 kts | 351° |
| 2026-04-27 11:27 | 55.00847 | 82.65235 | 368 ft | 3 kts | 350° |
| 2026-04-27 11:27 | 55.00878 | 82.65224 | 368 ft | 6 kts | 343° |
| 2026-04-27 11:27 | 55.00887 | 82.65141 | 368 ft | 9 kts | 321° |
| 2026-04-27 11:28 | 55.00942 | 82.65124 | 368 ft | 16 kts | 348° |
| 2026-04-27 11:28 | 55.01068 | 82.65087 | 368 ft | 19 kts | 353° |
| 2026-04-27 11:28 | 55.01133 | 82.65071 | 367 ft | 0 kts | 352° |
| 2026-04-27 11:29 | 55.01132 | 82.65071 | 367 ft | 0 kts | 352° |
| 2026-04-27 11:35 | 55.01132 | 82.65072 | 367 ft | 0 kts | 352° |
| 2026-04-27 11:36 | 55.01140 | 82.65070 | 367 ft | 6 kts | 353° |
| 2026-04-27 11:36 | 55.01222 | 82.65044 | 367 ft | 14 kts | 329° |
| 2026-04-27 11:37 | 55.01237 | 82.64970 | 367 ft | 0 kts | 261° |
| 2026-04-27 11:39 | 55.01237 | 82.64971 | 367 ft | 0 kts | 261° |
| 2026-04-27 11:40 | 55.01210 | 82.64699 | 368 ft | 46 kts | 260° |
| 2026-04-27 11:40 | 55.01133 | 82.63929 | 401 ft | 77 kts | 260° |
| 2026-04-27 11:41 | 55.01036 | 82.62934 | 495 ft | 90 kts | 263° |
| 2026-04-27 11:41 | 55.00931 | 82.62170 | 557 ft | 99 kts | 259° |
| 2026-04-27 11:41 | 55.00533 | 82.59396 | 954 ft | 99 kts | 259° |
| 2026-04-27 11:42 | 55.00362 | 82.58242 | 1151 ft | 100 kts | 260° |
| 2026-04-27 11:42 | 55.00195 | 82.57082 | 1336 ft | 97 kts | 261° |
| 2026-04-27 11:42 | 55.00346 | 82.56032 | 1524 ft | 96 kts | 319° |
| 2026-04-27 11:42 | 55.01022 | 82.55824 | 1711 ft | 99 kts | 351° |
| 2026-04-27 11:43 | 55.01684 | 82.55781 | 1882 ft | 92 kts | 349° |
| 2026-04-27 11:43 | 55.02301 | 82.55721 | 2040 ft | 85 kts | 347° |
| 2026-04-27 11:43 | 55.02873 | 82.55631 | 2204 ft | 80 kts | 347° |
| 2026-04-27 11:43 | 55.03415 | 82.55535 | 2365 ft | 77 kts | 345° |
| 2026-04-27 11:44 | 55.03942 | 82.55470 | 2484 ft | 78 kts | 346° |
| 2026-04-27 11:44 | 55.04521 | 82.55400 | 2497 ft | 87 kts | 347° |
| 2026-04-27 11:44 | 55.05153 | 82.55307 | 2500 ft | 95 kts | 348° |
| 2026-04-27 11:44 | 55.05774 | 82.55853 | 2502 ft | 117 kts | 54° |
| 2026-04-27 11:45 | 55.05936 | 82.57287 | 2498 ft | 124 kts | 81° |
| 2026-04-27 11:45 | 55.06014 | 82.58273 | 2500 ft | 125 kts | 80° |
| 2026-04-27 11:45 | 55.06195 | 82.60296 | 2500 ft | 128 kts | 79° |
| 2026-04-27 11:45 | 55.06325 | 82.61859 | 2495 ft | 131 kts | 79° |
| 2026-04-27 11:46 | 55.06457 | 82.63430 | 2498 ft | 133 kts | 80° |
| 2026-04-27 11:46 | 55.06608 | 82.65031 | 2500 ft | 133 kts | 79° |
| 2026-04-27 11:46 | 55.06748 | 82.66599 | 2495 ft | 129 kts | 79° |
| 2026-04-27 11:46 | 55.06878 | 82.68132 | 2491 ft | 127 kts | 79° |
| 2026-04-27 11:47 | 55.07007 | 82.69656 | 2488 ft | 127 kts | 79° |
| 2026-04-27 11:47 | 55.07093 | 82.70664 | 2486 ft | 126 kts | 79° |
| 2026-04-27 11:47 | 55.07217 | 82.72152 | 2481 ft | 123 kts | 79° |
| 2026-04-27 11:47 | 55.07325 | 82.73662 | 2366 ft | 129 kts | 89° |
| 2026-04-27 11:48 | 55.07043 | 82.75132 | 2250 ft | 130 kts | 137° |
| 2026-04-27 11:48 | 55.06254 | 82.75769 | 2141 ft | 127 kts | 171° |
| 2026-04-27 11:48 | 55.05403 | 82.76188 | 2007 ft | 125 kts | 170° |
| 2026-04-27 11:48 | 55.04618 | 82.76596 | 1991 ft | 112 kts | 170° |
| 2026-04-27 11:49 | 55.04366 | 82.76730 | 1987 ft | 111 kts | 170° |
| 2026-04-27 11:49 | 55.02649 | 82.76552 | 1964 ft | 81 kts | 248° |
| 2026-04-27 11:50 | 55.02371 | 82.75606 | 1749 ft | 91 kts | 256° |
| 2026-04-27 11:50 | 55.02234 | 82.74897 | 1602 ft | 95 kts | 257° |
| 2026-04-27 11:50 | 55.01996 | 82.73440 | 1375 ft | 93 kts | 264° |
| 2026-04-27 11:50 | 55.01895 | 82.72321 | 1120 ft | 93 kts | 267° |
| 2026-04-27 11:51 | 55.01803 | 82.71258 | 948 ft | 87 kts | 269° |
| 2026-04-27 11:51 | 55.01725 | 82.70262 | 747 ft | 75 kts | 288° |
| 2026-04-27 11:51 | 55.01545 | 82.68395 | 458 ft | 82 kts | 265° |
| 2026-04-27 11:52 | 55.01458 | 82.67432 | 373 ft | 74 kts | 265° |
| 2026-04-27 11:52 | 55.01391 | 82.66670 | 369 ft | 56 kts | 259° |
| 2026-04-27 11:52 | 55.01311 | 82.65908 | 456 ft | 69 kts | 264° |
| 2026-04-27 11:52 | 55.01220 | 82.65020 | 588 ft | 79 kts | 270° |
| 2026-04-27 11:53 | 55.01147 | 82.64012 | 717 ft | 86 kts | 260° |
| 2026-04-27 11:53 | 55.00989 | 82.63030 | 985 ft | 77 kts | 258° |
| 2026-04-27 11:53 | 55.00825 | 82.62125 | 1184 ft | 83 kts | 259° |
| 2026-04-27 11:53 | 55.00702 | 82.61115 | 1352 ft | 87 kts | 278° |
| 2026-04-27 11:54 | 55.01136 | 82.60450 | 1520 ft | 97 kts | 349° |
| 2026-04-27 11:54 | 55.01798 | 82.60389 | 1766 ft | 93 kts | 348° |
| 2026-04-27 11:54 | 55.02437 | 82.60310 | 1997 ft | 92 kts | 349° |
| 2026-04-27 11:54 | 55.03057 | 82.60192 | 2212 ft | 88 kts | 347° |
| 2026-04-27 11:55 | 55.03625 | 82.60062 | 2400 ft | 79 kts | 343° |
| 2026-04-27 11:55 | 55.04178 | 82.59920 | 2491 ft | 88 kts | 343° |
| 2026-04-27 11:55 | 55.04832 | 82.59752 | 2502 ft | 102 kts | 345° |
| 2026-04-27 11:55 | 55.05556 | 82.59519 | 2503 ft | 109 kts | 342° |
| 2026-04-27 11:56 | 55.06307 | 82.59239 | 2497 ft | 112 kts | 342° |
| 2026-04-27 11:56 | 55.07081 | 82.59449 | 2504 ft | 125 kts | 33° |
| 2026-04-27 11:56 | 55.07455 | 82.60847 | 2507 ft | 135 kts | 81° |
| 2026-04-27 11:56 | 55.07573 | 82.62483 | 2497 ft | 136 kts | 80° |
| 2026-04-27 11:57 | 55.07717 | 82.64122 | 2500 ft | 137 kts | 79° |
| 2026-04-27 11:57 | 55.07888 | 82.65757 | 2498 ft | 136 kts | 78° |
| 2026-04-27 11:57 | 55.08052 | 82.67388 | 2502 ft | 137 kts | 78° |
| 2026-04-27 11:57 | 55.08210 | 82.69032 | 2496 ft | 138 kts | 78° |
| 2026-04-27 11:58 | 55.08371 | 82.70689 | 2500 ft | 137 kts | 78° |
| 2026-04-27 11:58 | 55.08525 | 82.72311 | 2455 ft | 136 kts | 78° |
| 2026-04-27 11:58 | 55.08621 | 82.73901 | 2281 ft | 129 kts | 99° |
| 2026-04-27 11:58 | 55.08109 | 82.75032 | 2119 ft | 118 kts | 165° |
| 2026-04-27 11:59 | 55.07351 | 82.75471 | 1997 ft | 111 kts | 169° |
| 2026-04-27 11:59 | 55.06660 | 82.75893 | 1981 ft | 101 kts | 168° |
| 2026-04-27 11:59 | 55.05995 | 82.76306 | 1981 ft | 103 kts | 167° |
| 2026-04-27 11:59 | 55.05305 | 82.76730 | 1991 ft | 108 kts | 168° |
| 2026-04-27 12:00 | 55.04594 | 82.77158 | 1990 ft | 108 kts | 168° |
| 2026-04-27 12:00 | 55.03870 | 82.77534 | 2003 ft | 110 kts | 173° |
| 2026-04-27 12:00 | 55.03108 | 82.77622 | 1935 ft | 111 kts | 204° |
| 2026-04-27 12:00 | 55.02472 | 82.76942 | 1905 ft | 102 kts | 234° |
| 2026-04-27 12:01 | 55.02176 | 82.75892 | 1657 ft | 100 kts | 269° |
| 2026-04-27 12:01 | 55.02127 | 82.74701 | 1468 ft | 98 kts | 268° |
| 2026-04-27 12:01 | 55.02011 | 82.73539 | 1256 ft | 98 kts | 263° |
| 2026-04-27 12:01 | 55.01902 | 82.72371 | 996 ft | 94 kts | 266° |
| 2026-04-27 12:02 | 55.01810 | 82.71240 | 794 ft | 96 kts | 264° |
| 2026-04-27 12:02 | 55.01708 | 82.70128 | 641 ft | 90 kts | 266° |
| 2026-04-27 12:02 | 55.01617 | 82.69112 | 530 ft | 81 kts | 263° |
| 2026-04-27 12:02 | 55.01516 | 82.68101 | 450 ft | 86 kts | 267° |
| 2026-04-27 12:03 | 55.01433 | 82.67147 | 369 ft | 70 kts | 266° |
| 2026-04-27 12:03 | 55.01368 | 82.66417 | 369 ft | 57 kts | 260° |
| 2026-04-27 12:03 | 55.01315 | 82.65886 | 374 ft | 77 kts | 259° |
| 2026-04-27 12:03 | 55.01220 | 82.64871 | 474 ft | 90 kts | 264° |
| 2026-04-27 12:04 | 55.01109 | 82.63798 | 616 ft | 94 kts | 261° |
| 2026-04-27 12:04 | 55.00966 | 82.62684 | 755 ft | 95 kts | 259° |
| 2026-04-27 12:04 | 55.00817 | 82.61602 | 957 ft | 91 kts | 266° |
| 2026-04-27 12:04 | 55.01124 | 82.60723 | 1132 ft | 97 kts | 337° |
| 2026-04-27 12:05 | 55.01817 | 82.60557 | 1305 ft | 101 kts | 346° |
| 2026-04-27 12:05 | 55.02511 | 82.60389 | 1498 ft | 100 kts | 345° |
| 2026-04-27 12:05 | 55.03195 | 82.60167 | 1672 ft | 100 kts | 344° |
| 2026-04-27 12:05 | 55.03874 | 82.59942 | 1851 ft | 98 kts | 344° |
| 2026-04-27 12:06 | 55.04536 | 82.59713 | 2030 ft | 96 kts | 342° |
| 2026-04-27 12:06 | 55.05195 | 82.59527 | 2209 ft | 97 kts | 349° |
| 2026-04-27 12:06 | 55.05789 | 82.60122 | 2390 ft | 114 kts | 60° |
| 2026-04-27 12:06 | 55.05918 | 82.61545 | 2494 ft | 124 kts | 81° |
| 2026-04-27 12:07 | 55.06039 | 82.63030 | 2501 ft | 124 kts | 79° |
| 2026-04-27 12:07 | 55.06161 | 82.64531 | 2502 ft | 128 kts | 80° |
| 2026-04-27 12:07 | 55.06284 | 82.66080 | 2504 ft | 129 kts | 80° |
| 2026-04-27 12:07 | 55.06401 | 82.67631 | 2496 ft | 129 kts | 80° |
| 2026-04-27 12:08 | 55.06519 | 82.69194 | 2499 ft | 130 kts | 81° |
| 2026-04-27 12:08 | 55.06638 | 82.70767 | 2499 ft | 131 kts | 80° |
| 2026-04-27 12:08 | 55.06756 | 82.72332 | 2499 ft | 131 kts | 80° |
| 2026-04-27 12:08 | 55.06874 | 82.73901 | 2493 ft | 129 kts | 81° |
| 2026-04-27 12:09 | 55.06994 | 82.75458 | 2446 ft | 134 kts | 81° |
| 2026-04-27 12:09 | 55.07108 | 82.77026 | 2312 ft | 126 kts | 83° |
| 2026-04-27 12:09 | 55.06789 | 82.78383 | 2191 ft | 124 kts | 147° |
| 2026-04-27 12:09 | 55.06026 | 82.78908 | 2063 ft | 116 kts | 169° |
| 2026-04-27 12:10 | 55.05259 | 82.79344 | 2021 ft | 113 kts | 168° |
| 2026-04-27 12:10 | 55.04513 | 82.79784 | 2015 ft | 115 kts | 167° |
| 2026-04-27 12:10 | 55.03748 | 82.80231 | 2018 ft | 115 kts | 169° |
| 2026-04-27 12:10 | 55.02988 | 82.80497 | 2020 ft | 108 kts | 198° |
| 2026-04-27 12:11 | 55.02355 | 82.79955 | 2019 ft | 95 kts | 239° |
| 2026-04-27 12:11 | 55.02241 | 82.78923 | 2025 ft | 86 kts | 277° |
| 2026-04-27 12:11 | 55.02279 | 82.77847 | 1899 ft | 92 kts | 274° |
| 2026-04-27 12:11 | 55.02274 | 82.76738 | 1700 ft | 91 kts | 270° |
| 2026-04-27 12:12 | 55.02226 | 82.75638 | 1443 ft | 91 kts | 268° |
| 2026-04-27 12:12 | 55.02107 | 82.74567 | 1216 ft | 88 kts | 267° |
| 2026-04-27 12:12 | 55.02016 | 82.73539 | 1091 ft | 84 kts | 262° |
| 2026-04-27 12:12 | 55.01927 | 82.72570 | 974 ft | 77 kts | 264° |
| 2026-04-27 12:13 | 55.01839 | 82.71678 | 860 ft | 75 kts | 266° |
| 2026-04-27 12:13 | 55.01752 | 82.70759 | 759 ft | 80 kts | 264° |
| 2026-04-27 12:13 | 55.01672 | 82.69792 | 580 ft | 79 kts | 262° |
| 2026-04-27 12:13 | 55.01589 | 82.68942 | 520 ft | 64 kts | 264° |
| 2026-04-27 12:14 | 55.01522 | 82.68167 | 431 ft | 65 kts | 263° |
| 2026-04-27 12:14 | 55.01454 | 82.67414 | 368 ft | 62 kts | 263° |
| 2026-04-27 12:14 | 55.01394 | 82.66671 | 369 ft | 26 kts | 254° |
| 2026-04-27 12:15 | 55.01281 | 82.66615 | 367 ft | 20 kts | 165° |
| 2026-04-27 12:15 | 55.01246 | 82.66625 | 367 ft | 0 kts | 169° |
| 2026-04-27 12:17 | 55.01217 | 82.66633 | 367 ft | 10 kts | 171° |
| 2026-04-27 12:17 | 55.01113 | 82.66658 | 367 ft | 14 kts | 168° |
| 2026-04-27 12:17 | 55.01056 | 82.66530 | 367 ft | 17 kts | 244° |
| 2026-04-27 12:18 | 55.01026 | 82.66385 | 367 ft | 17 kts | 256° |
| 2026-04-27 12:18 | 55.00963 | 82.66163 | 368 ft | 24 kts | 264° |
| 2026-04-27 12:18 | 55.00932 | 82.65825 | 368 ft | 26 kts | 259° |
| 2026-04-27 12:18 | 55.00919 | 82.65663 | 368 ft | 13 kts | 248° |
| 2026-04-27 12:19 | 55.00906 | 82.65535 | 368 ft | 15 kts | 264° |
| 2026-04-27 12:19 | 55.00888 | 82.65332 | 368 ft | 13 kts | 261° |
| 2026-04-27 12:19 | 55.00881 | 82.65151 | 368 ft | 15 kts | 262° |
| 2026-04-27 12:19 | 55.00873 | 82.65063 | 368 ft | 6 kts | 259° |
| 2026-04-27 12:20 | 55.00870 | 82.65025 | 368 ft | 0 kts | 264° |
| 2026-04-27 12:20 | 55.00869 | 82.65025 | 368 ft | 0 kts | 263° |
| 2026-04-27 12:20 | 55.00870 | 82.65010 | 368 ft | 4 kts | 279° |
| 2026-04-27 12:21 | 55.00871 | 82.65002 | 368 ft | 0 kts | 290° |
| 2026-04-27 12:22 | 55.00871 | 82.65003 | 368 ft | 2 kts | 290° |
| 2026-04-27 12:22 | 55.00864 | 82.65029 | 368 ft | 2 kts | 313° |
| 2026-04-27 12:22 | 55.00849 | 82.65039 | 368 ft | 2 kts | 351° |
| 2026-04-27 12:22 | 55.00832 | 82.65044 | 368 ft | 2 kts | 350° |
| 2026-04-27 12:23 | 55.00823 | 82.65046 | 368 ft | 0 kts | 352° |
| 2026-04-27 12:25 | 55.01132 | 82.65071 | 367 ft | 0 kts | 352° |
| 2026-04-27 12:26 | 55.01132 | 82.65072 | 367 ft | 0 kts | 352° |
| 2026-04-27 12:26 | 55.01916 | 82.72588 | 1200 ft | 94 kts | 267° |
| 2026-04-27 12:26 | 55.01904 | 82.72429 | 1156 ft | 89 kts | 267° |